LHBP - BUDAPEST LISZT FERENC INTERNATIONAL AIRPORT

Compiled: 17:51:47 on 22/07/2018

Latest METAR/SPECI Reports

METAR LHBP 221730Z 36004KT 310V060 9999 TS SCT047CB SCT060 25/18 Q1009 TEMPO 29010KT -TSRA=

Previous reports

METAR LHBP 221700Z 35007KT 280V050 9999 VCSH FEW047CB SCT055 26/17 Q1009 TEMPO 29010KT -TSRA=
METAR LHBP 221630Z 34006KT 310V010 9999 FEW048CB SCT055 27/17 Q1008 NOSIG=
METAR LHBP 221600Z 34008KT 9999 FEW050TCU SCT055 27/17 Q1008 TEMPO FEW048CB SCT053=
METAR LHBP 221530Z 29009KT 240V310 9999 FEW048TCU SCT055 27/16 Q1008 NOSIG=

Latest TAF report

TAF LHBP 221715Z 2218/2318 30004KT CAVOK TEMPO 2218/2221 VRB15G25KT 5000 SHRA TSRA FEW045CB SCT055 TEMPO 2301/2305 MIFG BECMG 2307/2309 03008KT TEMPO 2308/2313 VRB15G25KT 5000 SHRA TSRA SCT039 SCT050 BKN080 BECMG 2313/2315 33011KT TEMPO 2313/2318 -SHRA FEW048TCU SCT055=

Valid WARNINGS

No valid warnings for LHBP